To NAV CANADA Home Page Login to a new session Search on AWWS site Feedback and Comments Disclaimer Vers la page française équivalente Tips FAQ What's new on the site To the Forecasts and Observations / NOTAM section To "File a Flight Plan" website Publications and other links Update of the User's profile FIC Telephone Numbers My Weather Data Folder Route Weather Data Regional Weather Data Local Weather Data To the Forecasts and Observations / NOTAM section
Request Generated 03/01/2015 at 00:29:06 UTC . Weather information available at that time is displayed.

METAR/TAF

STONY RAPIDS/SK    (show WxCam)

METAR CYSF 010000Z AUTO 33006KT 9SM CLR M13/M22 A3006 RMK SLP205=
METAR CYSF 282300Z AUTO 31010KT 9SM CLR M12/M21 A3004 RMK SLP196=
METAR CYSF 282200Z AUTO 32006KT 9SM CLR M11/M21 A3001 RMK SLP187=

TAF CYSF 282338Z 0100/0112 31008KT P6SM SKC
RMK FCST BASED ON AUTO OBS. NXT FCST BY 010600Z=
Your time UTC time
Weather data provided by Environment Canada and NAV CANADA